Time;durP1;ratioP1;P1;durP2;ratioP2;P2;SDS_P1;SDS_P2;PMS_P1;PMS_P2;Temp;Humidity;BMP_temperature;BMP_pressure;BME280_temperature;BME280_humidity;BME280_pressure;Samples;Min_cycle;Max_cycle;Signal;HPM_P1;HPM_P2
2022/10/16 00:01:38;;;;;;;6.45;1.90;;;;;;;15.85;100.00;98602.66;5032126;28;20037;-71
2022/10/16 00:04:03;;;;;;;4.82;1.02;;;;;;;15.88;100.00;98599.44;5028685;28;20034;-71
2022/10/16 00:06:30;;;;;;;1.98;0.95;;;;;;;15.87;100.00;98605.13;5033572;28;20091;-71
2022/10/16 00:08:55;;;;;;;5.63;1.10;;;;;;;15.78;100.00;98601.97;5028040;28;20063;-71
2022/10/16 00:11:33;;;;;;;1.85;0.88;;;;;;;15.84;100.00;98602.91;5029787;28;20475;-71
2022/10/16 00:14:00;;;;;;;2.80;0.82;;;;;;;15.84;100.00;98602.91;5019377;28;20084;-72
2022/10/16 00:16:26;;;;;;;2.15;1.00;;;;;;;15.70;100.00;98586.00;5023706;28;20032;-71
2022/10/16 00:18:52;;;;;;;2.15;1.10;;;;;;;15.75;100.00;98605.19;5027523;28;20040;-71
2022/10/16 00:21:20;;;;;;;3.20;1.20;;;;;;;15.89;100.00;98601.09;5029846;28;20025;-71
2022/10/16 00:23:46;;;;;;;2.30;1.10;;;;;;;15.89;100.00;98583.91;5025363;28;20022;-71
2022/10/16 00:26:15;;;;;;;1.55;1.10;;;;;;;15.88;100.00;98588.53;5031053;28;20034;-71
2022/10/16 00:28:41;;;;;;;3.80;1.37;;;;;;;15.72;100.00;98573.78;5028859;28;20040;-72
2022/10/16 00:31:09;;;;;;;6.35;1.40;;;;;;;15.91;100.00;98581.78;5026800;28;20021;-72
2022/10/16 00:33:35;;;;;;;2.38;1.23;;;;;;;15.90;100.00;98577.38;5029894;28;20056;-71
2022/10/16 00:36:02;;;;;;;4.03;1.33;;;;;;;15.88;100.00;98587.72;5029753;28;20096;-72
2022/10/16 00:38:28;;;;;;;10.18;1.60;;;;;;;15.78;100.00;98591.88;5031288;28;20017;-71
2022/10/16 00:40:53;;;;;;;3.85;1.05;;;;;;;15.79;100.00;98584.53;5027431;28;20091;-72
2022/10/16 00:43:38;;;;;;;4.25;1.13;;;;;;;15.85;100.00;98599.09;5031941;28;20079;-72
2022/10/16 00:46:09;;;;;;;5.82;1.40;;;;;;;15.72;100.00;98590.13;5021423;28;20404;-72
2022/10/16 00:48:37;;;;;;;3.30;1.40;;;;;;;15.78;100.00;98600.06;5029547;28;20029;-72
2022/10/16 00:51:05;;;;;;;2.30;1.15;;;;;;;15.70;100.00;98599.63;5033313;28;20025;-72
2022/10/16 00:53:31;;;;;;;4.90;1.20;;;;;;;15.80;100.00;98607.16;5034200;28;20108;-72
2022/10/16 00:55:56;;;;;;;4.15;1.27;;;;;;;15.75;100.00;98618.81;5034007;28;20101;-71
2022/10/16 00:58:21;;;;;;;1.95;0.80;;;;;;;15.71;100.00;98604.00;5032463;28;20292;-71
2022/10/16 01:00:46;;;;;;;2.72;1.00;;;;;;;15.68;100.00;98596.28;5027151;28;20021;-71
2022/10/16 01:03:31;;;;;;;1.42;0.73;;;;;;;15.72;100.00;98611.97;5030338;28;20041;-72
2022/10/16 01:06:07;;;;;;;2.38;1.10;;;;;;;15.68;100.00;98602.56;5033477;28;20030;-71
2022/10/16 01:08:48;;;;;;;2.90;1.40;;;;;;;15.71;100.00;98601.28;5015835;28;20036;-72
2022/10/16 01:11:21;;;;;;;2.60;1.00;;;;;;;15.80;100.00;98610.75;5028753;28;20033;-71
2022/10/16 01:13:53;;;;;;;2.58;1.10;;;;;;;15.82;100.00;98615.94;5049171;22;20032;-64
2022/10/16 01:16:32;;;;;;;3.63;1.00;;;;;;;15.90;100.00;98610.97;5040362;28;20224;-60
2022/10/16 01:19:02;;;;;;;;;;;;;;;15.89;100.00;98611.19;5045822;28;20542;-60
2022/10/16 01:21:37;;;;;;;11.15;1.50;;;;;;;15.84;100.00;98620.09;5049561;28;20367;-60
2022/10/16 01:24:39;;;;;;;3.15;1.45;;;;;;;15.87;100.00;98619.59;5051109;28;20044;-60
2022/10/16 01:27:12;;;;;;;2.33;1.15;;;;;;;16.00;100.00;98602.94;5032639;28;20551;-60
2022/10/16 01:29:46;;;;;;;3.53;1.10;;;;;;;15.95;100.00;98594.66;5043025;28;20036;-60
2022/10/16 01:32:38;;;;;;;1.45;0.98;;;;;;;15.98;100.00;98590.63;5049062;28;20143;-60
2022/10/16 01:35:11;;;;;;;1.40;0.80;;;;;;;15.97;100.00;98597.97;5050900;28;20029;-60
2022/10/16 01:37:39;;;;;;;2.80;0.88;;;;;;;16.03;100.00;98603.53;5051908;28;20025;-60
2022/10/16 01:40:11;;;;;;;1.33;0.90;;;;;;;15.95;100.00;98611.03;5041177;28;20528;-60
2022/10/16 01:42:49;;;;;;;1.55;0.80;;;;;;;15.93;100.00;98617.81;5048977;28;20033;-60
2022/10/16 01:45:18;;;;;;;3.40;0.80;;;;;;;15.96;100.00;98612.69;5049906;28;20115;-60
2022/10/16 01:47:46;;;;;;;1.83;0.75;;;;;;;15.97;100.00;98608.06;5044264;28;20033;-60
2022/10/16 01:50:14;;;;;;;3.88;1.30;;;;;;;16.08;100.00;98614.53;5048491;28;20024;-60
2022/10/16 01:52:43;;;;;;;1.57;0.90;;;;;;;16.09;100.00;98618.94;5052682;28;20123;-61
2022/10/16 01:55:12;;;;;;;1.02;0.70;;;;;;;16.09;100.00;98611.59;5053746;28;20028;-60
2022/10/16 01:57:41;;;;;;;1.45;0.90;;;;;;;16.04;100.00;98608.75;5049817;28;20033;-60
2022/10/16 02:00:10;;;;;;;1.17;0.90;;;;;;;16.09;100.00;98617.03;5046633;28;20060;-60
2022/10/16 02:02:39;;;;;;;1.75;1.25;;;;;;;16.05;100.00;98602.22;5044361;28;20127;-60
2022/10/16 02:05:29;;;;;;;1.55;0.60;;;;;;;16.07;100.00;98602.81;5042841;28;20090;-60
2022/10/16 02:07:55;;;;;;;2.05;0.80;;;;;;;16.12;100.00;98594.72;5038447;28;20043;-60
2022/10/16 02:10:21;;;;;;;1.23;0.88;;;;;;;16.02;100.00;98580.06;5048248;28;20017;-60
2022/10/16 02:13:00;;;;;;;5.20;1.15;;;;;;;15.98;100.00;98588.75;5045751;28;20116;-60
2022/10/16 02:15:26;;;;;;;3.40;0.82;;;;;;;15.89;100.00;98595.63;5037780;28;20025;-60
2022/10/16 02:17:51;;;;;;;2.55;0.88;;;;;;;15.80;100.00;98594.38;5040357;28;20033;-60
2022/10/16 02:20:19;;;;;;;1.58;0.80;;;;;;;15.80;100.00;98597.13;5044639;28;20021;-60
2022/10/16 02:22:50;;;;;;;2.27;1.00;;;;;;;15.73;100.00;98601.88;5048209;28;20128;-60
2022/10/16 02:25:15;;;;;;;2.08;0.80;;;;;;;15.69;100.00;98606.13;5042680;28;20121;-60
2022/10/16 02:28:12;;;;;;;3.55;1.00;;;;;;;15.65;100.00;98613.94;5041774;28;20471;-60
2022/10/16 02:30:54;;;;;;;2.38;0.90;;;;;;;15.70;100.00;98610.53;5041346;28;20056;-60
2022/10/16 02:33:22;;;;;;;1.17;0.88;;;;;;;15.69;100.00;98606.13;5049989;28;20071;-60
2022/10/16 02:35:50;;;;;;;1.23;0.82;;;;;;;15.65;100.00;98605.78;5045530;28;20027;-60
2022/10/16 02:38:17;;;;;;;5.37;1.10;;;;;;;15.71;100.00;98609.47;5048096;28;20031;-60
2022/10/16 02:40:43;;;;;;;2.55;0.90;;;;;;;15.67;100.00;98608.25;5048272;28;20031;-60
2022/10/16 02:43:09;;;;;;;1.55;0.90;;;;;;;15.81;100.00;98604.22;5047245;28;20388;-60
2022/10/16 02:45:34;;;;;;;4.78;1.30;;;;;;;15.81;100.00;98601.47;5049345;28;20090;-60
2022/10/16 02:48:00;;;;;;;2.13;0.88;;;;;;;15.81;100.00;98606.94;5046895;28;20476;-60
2022/10/16 02:50:26;;;;;;;2.05;1.00;;;;;;;15.82;100.00;98600.41;5038488;28;20030;-60
2022/10/16 02:52:51;;;;;;;1.80;0.85;;;;;;;15.82;100.00;98600.41;5046654;28;20036;-60
2022/10/16 02:55:17;;;;;;;7.45;1.13;;;;;;;15.73;100.00;98612.78;5040047;28;20024;-60
2022/10/16 02:57:42;;;;;;;2.45;0.80;;;;;;;15.68;100.00;98604.47;5044689;28;20079;-60
2022/10/16 03:00:11;;;;;;;1.90;0.80;;;;;;;15.64;100.00;98600.53;5045479;28;20071;-60
2022/10/16 03:02:36;;;;;;;3.10;1.10;;;;;;;15.63;100.00;98612.53;5044801;28;20504;-60
2022/10/16 03:05:02;;;;;;;6.10;1.00;;;;;;;15.58;100.00;98615.97;5051254;28;20075;-60
2022/10/16 03:07:27;;;;;;;4.20;0.93;;;;;;;15.52;100.00;98614.22;5050948;28;20033;-60
2022/10/16 03:09:54;;;;;;;1.63;1.00;;;;;;;15.49;100.00;98626.44;5049356;28;20118;-60
2022/10/16 03:12:19;;;;;;;3.70;0.98;;;;;;;15.42;100.00;98628.44;5050676;28;20029;-60
2022/10/16 03:14:48;;;;;;;1.50;1.00;;;;;;;15.39;100.00;98633.56;5055387;28;20543;-60
2022/10/16 03:17:16;;;;;;;4.97;1.02;;;;;;;15.28;100.00;98625.16;5053137;28;20020;-60
2022/10/16 03:19:42;;;;;;;1.58;0.95;;;;;;;15.34;100.00;98639.72;5050213;28;20514;-60
2022/10/16 03:22:08;;;;;;;2.78;1.08;;;;;;;15.36;100.00;98606.78;5052217;28;20057;-60
2022/10/16 03:24:33;;;;;;;2.72;1.10;;;;;;;15.42;100.00;98619.44;5054392;28;20104;-60
2022/10/16 03:26:59;;;;;;;7.70;1.10;;;;;;;15.53;100.00;98610.41;5042772;28;20061;-60
2022/10/16 03:29:25;;;;;;;4.55;1.08;;;;;;;15.45;100.00;98619.78;5045117;28;20033;-60
2022/10/16 03:31:51;;;;;;;3.03;0.73;;;;;;;15.42;100.00;98614.81;5050493;28;20021;-60
2022/10/16 03:34:16;;;;;;;1.50;0.88;;;;;;;15.37;100.00;98619.34;5045874;28;20025;-60
2022/10/16 03:36:41;;;;;;;1.55;1.08;;;;;;;15.34;100.00;98624.19;5050858;28;20112;-60
2022/10/16 03:39:07;;;;;;;2.60;1.13;;;;;;;15.27;100.00;98630.81;5046049;28;20990;-60
2022/10/16 03:41:33;;;;;;;4.00;1.30;;;;;;;15.10;100.00;98630.72;5047806;28;20057;-60
2022/10/16 03:43:58;;;;;;;1.80;1.10;;;;;;;14.94;100.00;98618.66;5045363;28;20017;-60
2022/10/16 03:46:23;;;;;;;3.70;0.98;;;;;;;14.95;100.00;98644.81;5041411;28;20031;-60
2022/10/16 03:48:50;;;;;;;2.67;1.00;;;;;;;14.89;100.00;98645.75;5048234;28;20040;-60
2022/10/16 03:51:15;;;;;;;3.13;1.20;;;;;;;14.84;100.00;98643.72;5045856;28;20021;-60
2022/10/16 03:53:41;;;;;;;2.13;0.85;;;;;;;14.79;100.00;98640.88;5043940;28;20500;-60
2022/10/16 03:56:06;;;;;;;2.65;1.00;;;;;;;14.78;100.00;98633.78;5044690;28;20476;-60
2022/10/16 03:58:32;;;;;;;3.67;1.52;;;;;;;14.71;100.00;98632.25;5046441;28;20029;-60
2022/10/16 04:00:57;;;;;;;2.47;1.38;;;;;;;14.74;100.00;98635.31;5047470;28;20491;-60
2022/10/16 04:03:22;;;;;;;1.45;0.85;;;;;;;14.72;100.00;98631.16;5052129;28;20032;-60
2022/10/16 04:05:48;;;;;;;1.50;1.00;;;;;;;14.78;100.00;98632.97;5049969;28;20033;-60
2022/10/16 04:08:14;;;;;;;2.97;0.80;;;;;;;14.76;100.00;98626.91;5044111;28;20032;-60
2022/10/16 04:10:39;;;;;;;1.67;1.02;;;;;;;14.80;100.00;98636.25;5048925;28;20021;-60
2022/10/16 04:13:05;;;;;;;2.78;1.10;;;;;;;14.80;100.00;98636.25;5052674;28;20033;-60
2022/10/16 04:15:30;;;;;;;2.08;1.00;;;;;;;14.74;100.00;98638.03;5050373;28;20025;-60
2022/10/16 04:18:37;;;;;;;6.03;1.10;;;;;;;14.72;100.00;98639.34;5053984;28;20036;-60
2022/10/16 04:21:09;;;;;;;4.00;1.00;;;;;;;14.68;100.00;98639.81;5060772;22;20069;-65
2022/10/16 04:23:34;;;;;;;1.88;1.00;;;;;;;14.61;100.00;98651.84;5053047;28;20025;-66
2022/10/16 04:28:34;;;;;;;1.75;1.00;;;;;;;14.59;100.00;98654.84;5100112;22;20056;-66
2022/10/16 04:30:59;;;;;;;6.03;1.20;;;;;;;14.46;100.00;98653.09;5051737;28;20087;-66
2022/10/16 04:33:25;;;;;;;1.33;1.00;;;;;;;14.44;100.00;98652.50;5051248;28;20064;-66
2022/10/16 04:35:57;;;;;;;1.48;0.90;;;;;;;14.40;100.00;98654.00;5042724;28;20025;-66
2022/10/16 04:38:23;;;;;;;3.30;1.17;;;;;;;14.42;100.00;98659.25;5039638;28;20036;-66
2022/10/16 04:40:48;;;;;;;2.40;1.30;;;;;;;14.39;100.00;98659.72;5045069;28;20469;-66
2022/10/16 04:43:13;;;;;;;4.75;1.77;;;;;;;14.43;100.00;98669.06;5048494;28;20082;-66
2022/10/16 04:45:39;;;;;;;2.75;0.90;;;;;;;14.43;100.00;98669.88;5041840;28;20035;-66
2022/10/16 04:48:04;;;;;;;1.75;0.90;;;;;;;14.47;100.00;98681.16;5046043;28;20067;-67
2022/10/16 04:50:29;;;;;;;1.83;1.02;;;;;;;14.49;100.00;98679.03;5047515;28;20028;-67
2022/10/16 04:52:55;;;;;;;2.70;0.98;;;;;;;14.48;100.00;98678.19;5044595;28;20025;-67
2022/10/16 04:55:20;;;;;;;2.63;1.05;;;;;;;14.48;100.00;98680.06;5045372;28;20907;-67
2022/10/16 04:57:46;;;;;;;1.38;0.90;;;;;;;14.47;100.00;98678.44;5042107;28;20036;-67
2022/10/16 05:00:12;;;;;;;2.42;0.70;;;;;;;14.59;100.00;98684.78;5043647;28;20423;-67
2022/10/16 05:02:37;;;;;;;6.13;1.17;;;;;;;14.59;100.00;98684.78;5041724;28;20112;-67
2022/10/16 05:05:03;;;;;;;5.82;0.82;;;;;;;14.62;100.00;98689.75;5045181;28;20145;-67
2022/10/16 05:07:29;;;;;;;4.82;1.08;;;;;;;14.63;100.00;98691.41;5042726;28;20021;-67
2022/10/16 05:09:54;;;;;;;1.65;0.82;;;;;;;14.71;100.00;98687.53;5043549;28;20460;-67
2022/10/16 05:12:20;;;;;;;6.47;1.08;;;;;;;14.69;100.00;98684.19;5045853;28;20029;-67
2022/10/16 05:14:45;;;;;;;1.27;0.80;;;;;;;14.60;100.00;98680.97;5046067;28;20029;-67
2022/10/16 05:17:11;;;;;;;3.00;0.80;;;;;;;14.62;100.00;98689.75;5049695;28;20187;-68
2022/10/16 05:19:36;;;;;;;3.30;0.93;;;;;;;14.60;100.00;98685.59;5042322;28;20169;-67
2022/10/16 05:22:02;;;;;;;3.22;0.70;;;;;;;14.55;100.00;98682.75;5045402;28;20021;-68
2022/10/16 05:24:27;;;;;;;6.28;0.98;;;;;;;14.51;100.00;98687.78;5047272;28;20059;-68
2022/10/16 05:26:53;;;;;;;2.58;0.73;;;;;;;14.46;100.00;98687.63;5049366;28;20033;-67
2022/10/16 05:29:18;;;;;;;2.03;0.90;;;;;;;14.45;100.00;98688.72;5038095;28;20025;-67
2022/10/16 05:31:44;;;;;;;2.53;1.10;;;;;;;14.42;100.00;98695.44;5043553;28;20500;-67
2022/10/16 05:34:09;;;;;;;3.95;0.85;;;;;;;14.40;100.00;98688.56;5043035;28;20044;-68
2022/10/16 05:36:35;;;;;;;1.75;0.90;;;;;;;14.37;100.00;98691.75;5047201;28;20122;-68
2022/10/16 05:39:01;;;;;;;3.15;0.93;;;;;;;14.35;100.00;98688.44;5046606;28;20102;-67
2022/10/16 05:41:26;;;;;;;3.00;0.70;;;;;;;14.35;100.00;98693.88;5050009;28;20025;-67
2022/10/16 05:43:52;;;;;;;1.45;0.80;;;;;;;14.39;100.00;98697.81;5048060;28;20033;-68
2022/10/16 05:46:17;;;;;;;3.33;0.70;;;;;;;14.37;100.00;98694.47;5046895;28;20408;-68
2022/10/16 05:48:43;;;;;;;3.50;1.00;;;;;;;14.40;100.00;98696.75;5047757;28;20090;-67
2022/10/16 05:51:11;;;;;;;2.53;0.80;;;;;;;14.63;100.00;98688.69;5041708;28;20391;-66
2022/10/16 05:53:38;;;;;;;1.50;0.80;;;;;;;14.85;100.00;98693.59;5044057;28;20036;-66
2022/10/16 05:56:04;;;;;;;2.38;1.00;;;;;;;14.74;100.00;98691.69;5044349;28;20025;-67
2022/10/16 05:58:33;;;;;;;2.13;0.90;;;;;;;14.68;100.00;98697.00;5043239;28;20021;-67
2022/10/16 06:01:03;;;;;;;4.63;0.97;;;;;;;14.62;100.00;98699.81;5045790;28;20021;-67
2022/10/16 06:03:29;;;;;;;3.55;1.00;;;;;;;14.64;100.00;98705.84;5063427;28;20785;-67
2022/10/16 06:05:55;;;;;;;1.65;0.93;;;;;;;14.60;100.00;98700.03;5051424;28;20067;-67
2022/10/16 06:08:22;;;;;;;5.13;1.17;;;;;;;14.53;100.00;98715.63;5047333;28;20407;-66
2022/10/16 06:10:47;;;;;;;3.65;1.40;;;;;;;14.52;100.00;98718.56;5059518;28;20032;-66
2022/10/16 06:13:13;;;;;;;2.97;1.23;;;;;;;14.56;100.00;98722.50;5042872;28;20094;-66
2022/10/16 06:15:44;;;;;;;1.65;1.08;;;;;;;14.54;100.00;98716.47;5049464;28;20036;-67
2022/10/16 06:18:09;;;;;;;1.48;0.90;;;;;;;14.53;100.00;98722.97;5051059;28;20036;-67
2022/10/16 06:20:36;;;;;;;2.08;1.10;;;;;;;14.56;100.00;98722.50;5040837;28;20416;-65
2022/10/16 06:23:03;;;;;;;4.28;0.98;;;;;;;14.60;100.00;98724.56;5038060;28;20029;-66
2022/10/16 06:25:30;;;;;;;3.97;1.30;;;;;;;14.78;100.00;98728.28;5039600;28;20029;-66
2022/10/16 06:27:55;;;;;;;2.60;0.82;;;;;;;14.87;100.00;98718.69;5038534;28;20025;-66
2022/10/16 06:30:21;;;;;;;4.43;1.13;;;;;;;14.87;100.00;98719.53;5040475;28;20472;-66
2022/10/16 06:32:46;;;;;;;5.93;1.35;;;;;;;15.02;100.00;98719.09;5047170;28;20021;-67
2022/10/16 06:35:11;;;;;;;8.68;1.30;;;;;;;15.04;100.00;98716.16;5049732;28;20028;-67
2022/10/16 06:37:37;;;;;;;5.82;2.47;;;;;;;15.15;100.00;98709.88;5045271;28;20025;-66
2022/10/16 06:40:04;;;;;;;5.97;2.40;;;;;;;15.17;100.00;98712.34;5047430;28;20020;-66
2022/10/16 06:42:30;;;;;;;6.43;1.80;;;;;;;15.16;100.00;98721.59;5045281;28;20646;-66
2022/10/16 06:44:55;;;;;;;3.60;1.70;;;;;;;15.27;100.00;98716.19;5049324;28;20039;-65
2022/10/16 06:47:21;;;;;;;4.90;1.45;;;;;;;15.33;100.00;98719.84;5046774;28;20024;-65
2022/10/16 06:49:46;;;;;;;4.25;1.42;;;;;;;15.33;100.00;98728.84;5045616;28;20488;-66
2022/10/16 06:52:11;;;;;;;3.53;1.35;;;;;;;15.33;100.00;98730.75;5044642;28;20112;-60
2022/10/16 06:54:37;;;;;;;2.72;1.50;;;;;;;15.44;100.00;98738.09;5050604;28;20017;-60
2022/10/16 06:57:02;;;;;;;3.08;1.50;;;;;;;15.59;100.00;98750.41;5047474;28;20025;-60
2022/10/16 06:59:28;;;;;;;3.88;1.33;;;;;;;15.64;100.00;98756.00;5049324;28;20044;-60
2022/10/16 07:01:53;;;;;;;3.15;0.80;;;;;;;15.67;100.00;98756.38;5049319;28;20067;-60
2022/10/16 07:04:18;;;;;;;5.55;0.90;;;;;;;15.72;100.00;98759.25;5040072;28;20048;-61
2022/10/16 07:06:44;;;;;;;2.70;1.13;;;;;;;15.77;100.00;98763.97;5043682;28;20033;-60
2022/10/16 07:09:10;;;;;;;5.90;1.20;;;;;;;15.98;100.00;98763.38;5045022;28;20021;-60
2022/10/16 07:11:38;;;;;;;3.20;0.80;;;;;;;16.26;100.00;98763.66;5033750;28;20024;-61
2022/10/16 07:14:04;;;;;;;3.58;0.73;;;;;;;16.18;100.00;98740.31;5104099;22;20033;-79
2022/10/16 07:16:32;;;;;;;3.40;1.00;;;;;;;16.29;100.00;98766.72;5052167;28;20060;-75
2022/10/16 07:18:59;;;;;;;2.60;0.95;;;;;;;16.11;100.00;98766.91;5058460;28;20509;-82
2022/10/16 07:21:35;;;;;;;5.15;1.80;;;;;;;16.13;100.00;98775.69;5049269;28;20103;-70
2022/10/16 07:24:01;;;;;;;4.60;1.45;;;;;;;16.09;100.00;98780.78;5047757;28;20456;-70
2022/10/16 07:26:28;;;;;;;7.82;1.50;;;;;;;16.04;100.00;98768.94;5049782;28;20104;-68
2022/10/16 07:28:53;;;;;;;2.03;1.20;;;;;;;15.89;100.00;98759.34;5052177;28;20037;-68
2022/10/16 07:31:20;;;;;;;5.55;1.60;;;;;;;15.99;100.00;98783.31;5047806;28;20028;-69
2022/10/16 07:33:47;;;;;;;6.75;1.40;;;;;;;16.18;100.00;98775.78;5054919;28;20045;-69
2022/10/16 07:36:13;;;;;;;1.92;1.02;;;;;;;16.17;100.00;98788.63;5040483;28;20375;-73
2022/10/16 07:38:39;;;;;;;4.10;1.00;;;;;;;16.12;100.00;98780.31;5048770;28;20029;-70
2022/10/16 07:41:06;;;;;;;3.28;0.73;;;;;;;16.28;100.00;98789.66;5048144;28;20112;-72
2022/10/16 07:43:32;;;;;;;4.78;1.10;;;;;;;16.24;100.00;98776.72;5041412;28;20082;-76
2022/10/16 07:45:58;;;;;;;2.75;0.98;;;;;;;16.20;100.00;98776.38;5049330;28;20028;-77
2022/10/16 07:48:26;;;;;;;2.45;1.02;;;;;;;16.11;100.00;98786.00;5057227;28;20031;-77
2022/10/16 07:50:51;;;;;;;6.47;1.30;;;;;;;16.01;100.00;98781.16;5050315;28;20585;-74
2022/10/16 07:53:17;;;;;;;1.88;1.13;;;;;;;15.90;100.00;98788.31;5050377;28;20063;-73
2022/10/16 07:55:43;;;;;;;3.30;1.35;;;;;;;16.08;100.00;98811.88;5051490;28;20021;-69
2022/10/16 07:58:08;;;;;;;4.13;1.10;;;;;;;16.15;100.00;98793.47;5051068;28;20106;-69
2022/10/16 08:00:36;;;;;;;3.00;1.00;;;;;;;16.12;100.00;98774.03;5049349;28;20421;-73
2022/10/16 08:03:01;;;;;;;7.65;1.10;;;;;;;16.26;100.00;98807.34;5055351;28;20059;-71
2022/10/16 08:05:29;;;;;;;2.75;1.30;;;;;;;16.36;100.00;98802.94;5051228;28;20112;-71
2022/10/16 08:07:54;;;;;;;2.95;1.27;;;;;;;16.67;100.00;98805.47;5048768;28;20117;-71
2022/10/16 08:10:24;;;;;;;1.63;0.70;;;;;;;16.84;100.00;98815.38;5052391;28;20538;-79
2022/10/16 08:12:49;;;;;;;1.55;0.80;;;;;;;17.20;100.00;98818.78;5053385;28;20100;-69
2022/10/16 08:15:15;;;;;;;3.20;0.75;;;;;;;17.33;100.00;98823.13;5052794;28;20497;-70
2022/10/16 08:17:40;;;;;;;2.70;0.70;;;;;;;17.60;100.00;98811.53;5054410;28;20088;-70
2022/10/16 08:20:06;;;;;;;1.20;0.80;;;;;;;17.72;100.00;98817.75;5050750;28;20017;-70
2022/10/16 08:22:31;;;;;;;2.95;0.90;;;;;;;18.15;100.00;98808.00;5051619;28;20028;-71
2022/10/16 08:24:57;;;;;;;6.82;0.95;;;;;;;18.82;100.00;98823.41;5049828;28;20080;-72
2022/10/16 08:27:22;;;;;;;1.75;0.88;;;;;;;19.04;100.00;98795.94;5048695;28;20476;-71
2022/10/16 08:29:50;;;;;;;2.38;0.75;;;;;;;19.68;100.00;98779.53;5051874;28;20086;-74
2022/10/16 08:32:16;;;;;;;1.70;0.77;;;;;;;20.38;100.00;98819.78;5050424;28;20041;-74
2022/10/16 08:34:41;;;;;;;1.17;0.65;;;;;;;22.38;100.00;98818.19;5052165;28;20398;-74
2022/10/16 08:37:07;;;;;;;0.75;0.50;;;;;;;24.35;92.04;98791.38;5050370;28;20021;-75
2022/10/16 08:39:33;;;;;;;0.77;0.60;;;;;;;23.81;90.48;98809.88;5050240;28;20150;-76
2022/10/16 08:42:36;;;;;;;1.95;0.90;;;;;;;23.84;90.84;98825.06;5053462;28;20032;-76
2022/10/16 08:45:19;;;;;;;3.05;1.13;;;;;;;23.00;95.79;98829.78;5049959;28;20029;-72
2022/10/16 08:47:50;;;;;;;4.40;0.70;;;;;;;22.44;100.00;98839.91;5046113;28;20031;-71
2022/10/16 08:50:24;;;;;;;2.47;0.70;;;;;;;21.53;100.00;98843.56;5040311;28;20773;-71
2022/10/16 08:52:50;;;;;;;5.35;0.85;;;;;;;20.83;100.00;98821.09;5049405;28;20033;-70
2022/10/16 08:55:32;;;;;;;4.35;0.60;;;;;;;20.87;100.00;98836.78;5051496;28;20109;-71
2022/10/16 08:57:58;;;;;;;1.63;0.68;;;;;;;20.31;100.00;98826.34;5040225;28;20112;-71
2022/10/16 09:00:24;;;;;;;6.07;1.05;;;;;;;20.27;100.00;98833.47;5046118;28;20028;-71
2022/10/16 09:03:24;;;;;;;3.00;0.80;;;;;;;20.11;100.00;98839.97;5046571;28;20107;-70
2022/10/16 09:06:13;;;;;;;1.30;0.75;;;;;;;19.75;100.00;98838.88;5044638;28;20021;-71
2022/10/16 09:09:03;;;;;;;1.17;0.80;;;;;;;19.78;100.00;98841.09;5055354;28;20386;-71
2022/10/16 09:11:48;;;;;;;1.52;0.90;;;;;;;19.51;100.00;98836.44;5050000;28;20079;-71
2022/10/16 09:14:36;;;;;;;3.80;1.02;;;;;;;19.22;100.00;98844.13;5046483;28;20056;-70
2022/10/16 09:17:16;;;;;;;1.98;1.00;;;;;;;19.01;100.00;98852.13;5044180;28;20029;-71
2022/10/16 09:19:53;;;;;;;5.68;0.90;;;;;;;19.01;100.00;98838.44;5041864;28;20029;-71
2022/10/16 09:22:24;;;;;;;5.88;0.70;;;;;;;19.14;100.00;98859.13;5051312;28;20017;-72
2022/10/16 09:24:50;;;;;;;13.07;0.88;;;;;;;19.10;100.00;98844.31;5046415;28;20033;-72
2022/10/16 09:27:15;;;;;;;3.78;0.90;;;;;;;19.15;100.00;98840.75;5046131;28;20716;-72
2022/10/16 09:29:41;;;;;;;2.35;0.85;;;;;;;19.46;100.00;98855.59;5048424;28;20545;-72
2022/10/16 09:32:20;;;;;;;1.15;0.70;;;;;;;20.27;100.00;98866.44;5046319;28;20490;-72
2022/10/16 09:34:50;;;;;;;5.80;0.95;;;;;;;21.09;100.00;98877.00;5043269;28;20039;-72
2022/10/16 09:37:18;;;;;;;3.38;1.92;;;;;;;21.81;100.00;98851.28;5048476;28;20031;-72
2022/10/16 09:39:50;;;;;;;2.72;0.70;;;;;;;25.40;92.94;98871.72;5044022;28;20468;-72
2022/10/16 09:42:31;;;;;;;3.17;0.85;;;;;;;27.15;71.10;98866.69;5044760;28;20040;-72
2022/10/16 09:44:56;;;;;;;1.88;0.80;;;;;;;28.30;62.14;98877.28;5045914;28;20032;-72
2022/10/16 09:47:25;;;;;;;2.80;1.25;;;;;;;28.35;60.96;98873.56;5050602;28;20036;-72
2022/10/16 09:49:59;;;;;;;4.22;0.80;;;;;;;29.08;56.42;98864.84;5050756;28;20036;-70
2022/10/16 09:52:25;;;;;;;2.47;0.80;;;;;;;28.69;53.95;98883.22;5045524;28;20025;-70
2022/10/16 09:54:51;;;;;;;2.95;0.60;;;;;;;29.14;53.92;98883.09;5048881;28;20379;-70
2022/10/16 09:57:16;;;;;;;4.82;1.05;;;;;;;29.65;52.85;98853.63;5078717;28;20495;-70
2022/10/16 09:59:48;;;;;;;4.57;0.80;;;;;;;30.20;50.42;98871.63;5047481;28;20028;-70
2022/10/16 10:02:15;;;;;;;4.57;0.80;;;;;;;30.85;48.09;98866.84;5044436;28;20724;-70
2022/10/16 10:05:01;;;;;;;1.67;0.65;;;;;;;32.94;44.33;98875.00;5045765;28;20029;-70
2022/10/16 10:07:33;;;;;;;3.58;0.73;;;;;;;32.29;45.09;98862.78;5048028;28;20037;-70
2022/10/16 10:09:59;;;;;;;1.77;0.70;;;;;;;30.57;46.67;98867.25;5045019;28;20078;-70
2022/10/16 10:12:27;;;;;;;3.95;0.80;;;;;;;30.80;47.28;98881.78;5048040;28;20056;-70
2022/10/16 10:14:56;;;;;;;5.57;0.70;;;;;;;30.72;47.94;98875.06;5049414;28;20083;-71
2022/10/16 10:17:24;;;;;;;3.28;1.10;;;;;;;30.06;48.27;98869.84;5048305;28;20037;-71
2022/10/16 10:19:56;;;;;;;2.28;0.90;;;;;;;29.57;50.09;98887.88;5048068;28;20110;-71
2022/10/16 10:22:45;;;;;;;4.88;0.80;;;;;;;29.13;50.75;98887.00;5043477;28;20051;-70
2022/10/16 10:25:10;;;;;;;1.52;0.88;;;;;;;29.46;49.94;98891.00;5044946;28;20593;-71
2022/10/16 10:28:00;;;;;;;1.17;0.70;;;;;;;28.55;51.66;98886.94;5045523;28;20075;-72
2022/10/16 10:30:30;;;;;;;8.27;1.00;;;;;;;27.73;54.91;98890.94;5045000;28;20351;-72
2022/10/16 10:33:16;;;;;;;2.83;0.77;;;;;;;26.40;59.39;98888.13;5044467;28;20048;-72
2022/10/16 10:35:50;;;;;;;5.47;0.88;;;;;;;25.52;61.91;98897.03;5057940;28;20572;-72
2022/10/16 10:38:27;;;;;;;2.90;1.60;;;;;;;24.99;68.42;98894.38;5041761;28;20693;-73
2022/10/16 10:41:15;;;;;;;2.63;0.98;;;;;;;24.38;71.00;98906.13;5048618;28;20029;-72
2022/10/16 10:43:55;;;;;;;3.08;0.80;;;;;;;24.11;73.65;98906.66;5039752;28;20449;-71
2022/10/16 10:46:32;;;;;;;3.58;1.10;;;;;;;23.82;76.06;98899.16;5049032;28;20025;-71
2022/10/16 10:49:03;;;;;;;3.22;0.80;;;;;;;23.52;80.38;98900.16;5046818;28;20029;-71
2022/10/16 10:51:45;;;;;;;1.48;0.88;;;;;;;23.74;79.88;98885.97;5045416;28;20884;-71
2022/10/16 10:54:25;;;;;;;1.52;0.70;;;;;;;23.78;83.78;98898.06;5053576;28;20017;-70
2022/10/16 10:57:02;;;;;;;2.63;0.77;;;;;;;23.95;79.43;98908.72;5053275;28;20025;-71
2022/10/16 11:00:05;;;;;;;8.25;4.13;;;;;;;23.39;83.56;98907.94;5049741;28;20535;-71
2022/10/16 11:02:43;;;;;;;5.97;1.80;;;;;;;23.90;86.12;98906.00;5052559;28;20113;-70
2022/10/16 11:05:18;;;;;;;3.78;1.00;;;;;;;23.99;79.74;98909.78;5051521;28;20059;-70
2022/10/16 11:07:50;;;;;;;1.85;0.82;;;;;;;24.17;79.98;98905.50;5050795;28;20058;-70
2022/10/16 11:10:24;;;;;;;1.00;0.77;;;;;;;24.42;77.59;98896.13;5040616;28;20029;-70
2022/10/16 11:13:04;;;;;;;1.42;0.80;;;;;;;24.47;74.83;98879.50;5043199;28;20037;-71
2022/10/16 11:15:39;;;;;;;1.17;0.70;;;;;;;24.66;73.46;98885.94;5049040;28;20060;-71
2022/10/16 11:18:11;;;;;;;5.40;1.08;;;;;;;24.45;71.52;98874.28;5048475;28;20033;-70
2022/10/16 11:20:46;;;;;;;2.05;1.25;;;;;;;24.79;70.69;98895.47;5039987;28;20037;-71
2022/10/16 11:23:21;;;;;;;5.78;1.33;;;;;;;24.99;70.83;98890.78;5051772;28;20119;-70
2022/10/16 11:25:48;;;;;;;0.88;0.65;;;;;;;25.63;66.45;98878.31;5049476;28;20033;-71
2022/10/16 11:28:31;;;;;;;1.05;0.80;;;;;;;25.80;66.51;98886.06;5051662;28;20037;-71
2022/10/16 11:31:03;;;;;;;1.75;0.88;;;;;;;26.50;62.99;98865.75;5054161;28;20049;-70
2022/10/16 11:33:42;;;;;;;2.90;0.90;;;;;;;28.60;55.92;98874.84;5051835;28;20037;-70
2022/10/16 11:36:14;;;;;;;;;;;;;;;30.33;50.75;98873.41;5047051;28;20033;-71
2022/10/16 11:38:55;;;;;;;4.05;1.10;;;;;;;31.66;47.09;98874.06;5047751;28;19959;-72
2022/10/16 11:41:39;;;;;;;4.60;0.70;;;;;;;31.78;45.91;98867.69;5053925;28;20487;-74